Time;durP1;ratioP1;P1;durP2;ratioP2;P2;SDS_P1;SDS_P2;PMS_P1;PMS_P2;Temp;Humidity;BMP_temperature;BMP_pressure;BME280_temperature;BME280_humidity;BME280_pressure;Samples;Min_cycle;Max_cycle;Signal;HPM_P1;HPM_P2
2023/02/06 00:00:22;;;;;;;19.58;2.65;;;;;;;;;;5003031;28;20486;-78
2023/02/06 00:02:49;;;;;;;15.18;2.42;;;;;;;;;;5006103;28;20168;-77
2023/02/06 00:05:15;;;;;;;12.52;2.10;;;;;;;;;;5006839;28;20030;-78
2023/02/06 00:07:40;;;;;;;16.50;2.22;;;;;;;;;;5003975;28;20040;-78
2023/02/06 00:10:06;;;;;;;11.15;2.42;;;;;;;;;;5007058;28;20026;-78
2023/02/06 00:12:32;;;;;;;11.60;1.85;;;;;;;;;;5005849;28;20533;-78
2023/02/06 00:14:57;;;;;;;12.25;2.13;;;;;;;;;;5008067;28;20394;-78
2023/02/06 00:17:22;;;;;;;8.68;1.58;;;;;;;;;;5009966;28;20168;-78
2023/02/06 00:19:48;;;;;;;10.98;2.08;;;;;;;;;;5003740;28;20036;-78
2023/02/06 00:22:13;;;;;;;12.13;1.83;;;;;;;;;;5008430;28;20030;-78
2023/02/06 00:24:42;;;;;;;11.02;2.22;;;;;;;;;;4985727;28;20033;-78
2023/02/06 00:27:07;;;;;;;9.82;1.95;;;;;;;;;;5009093;28;20393;-78
2023/02/06 00:29:33;;;;;;;7.40;1.60;;;;;;;;;;4992430;28;20034;-78
2023/02/06 00:31:58;;;;;;;10.80;1.98;;;;;;;;;;5010413;28;20022;-78
2023/02/06 00:34:24;;;;;;;12.07;2.40;;;;;;;;;;5001039;28;20025;-78
2023/02/06 00:36:50;;;;;;;12.95;2.13;;;;;;;;;;5000146;28;20037;-78
2023/02/06 00:39:16;;;;;;;6.78;1.65;;;;;;;;;;4991132;28;20425;-78
2023/02/06 00:41:42;;;;;;;10.68;2.00;;;;;;;;;;5009213;28;20018;-78
2023/02/06 00:44:07;;;;;;;12.70;1.90;;;;;;;;;;5008796;28;20109;-78
2023/02/06 00:46:33;;;;;;;10.35;1.70;;;;;;;;;;5007404;28;20123;-78
2023/02/06 00:48:58;;;;;;;8.63;1.83;;;;;;;;;;5007019;28;20026;-78
2023/02/06 00:51:23;;;;;;;12.00;2.20;;;;;;;;;;4989697;28;20455;-78
2023/02/06 00:53:49;;;;;;;9.45;1.85;;;;;;;;;;5010674;28;20028;-78
2023/02/06 00:56:14;;;;;;;8.45;1.90;;;;;;;;;;5012270;28;20473;-78
2023/02/06 00:58:39;;;;;;;13.48;2.25;;;;;;;;;;4995391;28;20073;-78
2023/02/06 01:01:05;;;;;;;10.73;2.15;;;;;;;;;;5009194;28;20433;-78
2023/02/06 01:03:30;;;;;;;8.63;2.08;;;;;;;;;;5007043;28;20026;-78
2023/02/06 01:05:56;;;;;;;7.97;1.73;;;;;;;;;;5008321;28;20034;-78
2023/02/06 01:08:21;;;;;;;10.75;2.25;;;;;;;;;;4989576;28;20072;-78
2023/02/06 01:10:46;;;;;;;12.40;1.83;;;;;;;;;;5006053;28;20026;-78
2023/02/06 01:13:12;;;;;;;9.18;1.67;;;;;;;;;;5003445;28;20048;-78
2023/02/06 01:15:38;;;;;;;12.23;1.88;;;;;;;;;;5009389;28;20509;-78
2023/02/06 01:18:03;;;;;;;11.07;2.25;;;;;;;;;;5011537;28;20025;-78
2023/02/06 01:20:29;;;;;;;5.93;1.13;;;;;;;;;;5003601;28;20037;-78
2023/02/06 01:22:54;;;;;;;6.55;1.35;;;;;;;;;;5004102;28;20056;-78
2023/02/06 01:25:19;;;;;;;6.82;1.15;;;;;;;;;;5003828;28;20071;-78
2023/02/06 01:27:45;;;;;;;7.93;1.60;;;;;;;;;;4994971;28;20493;-78
2023/02/06 01:30:11;;;;;;;12.32;2.60;;;;;;;;;;5002061;28;20501;-78
2023/02/06 01:32:38;;;;;;;7.28;1.58;;;;;;;;;;5007901;28;20097;-78
2023/02/06 01:35:05;;;;;;;9.63;1.65;;;;;;;;;;4999271;28;20025;-78
2023/02/06 01:37:31;;;;;;;9.90;1.88;;;;;;;;;;5008191;28;20034;-78
2023/02/06 01:39:56;;;;;;;7.05;1.40;;;;;;;;;;5009110;28;20053;-77
2023/02/06 01:42:22;;;;;;;7.20;1.55;;;;;;;;;;5003967;28;20026;-78
2023/02/06 01:44:47;;;;;;;8.10;1.55;;;;;;;;;;4989213;28;20055;-78
2023/02/06 01:47:12;;;;;;;7.57;1.70;;;;;;;;;;5005943;28;20032;-78
2023/02/06 01:49:42;;;;;;;8.90;1.75;;;;;;;;;;4995796;28;20060;-78
2023/02/06 01:52:15;;;;;;;7.32;1.30;;;;;;;;;;5005583;28;20414;-78
2023/02/06 01:54:44;;;;;;;11.63;2.03;;;;;;;;;;5008425;28;20092;-78
2023/02/06 01:57:10;;;;;;;7.60;1.73;;;;;;;;;;5004586;28;20083;-78
2023/02/06 01:59:40;;;;;;;8.98;1.88;;;;;;;;;;5008287;28;20091;-78
2023/02/06 02:02:06;;;;;;;9.30;1.95;;;;;;;;;;4986969;28;20029;-77
2023/02/06 02:04:32;;;;;;;10.85;2.22;;;;;;;;;;5006682;28;20021;-78
2023/02/06 02:07:15;;;;;;;12.18;2.70;;;;;;;;;;4987383;28;20087;-78
2023/02/06 02:09:41;;;;;;;8.70;1.67;;;;;;;;;;5001008;28;20030;-78
2023/02/06 02:12:06;;;;;;;8.45;1.63;;;;;;;;;;5007162;28;20428;-78
2023/02/06 02:14:33;;;;;;;9.57;2.05;;;;;;;;;;5009586;28;20022;-78
2023/02/06 02:17:35;;;;;;;9.02;1.65;;;;;;;;;;5008391;28;20083;-78
2023/02/06 02:20:21;;;;;;;8.30;2.25;;;;;;;;;;5004844;28;20096;-78
2023/02/06 02:22:53;;;;;;;8.60;1.67;;;;;;;;;;5003217;28;20486;-78
2023/02/06 02:25:47;;;;;;;5.80;2.00;;;;;;;;;;4994125;28;20604;-78
2023/02/06 02:28:34;;;;;;;7.55;1.70;;;;;;;;;;5004236;28;20528;-78
2023/02/06 02:31:35;;;;;;;9.20;1.60;;;;;;;;;;5003815;28;20108;-78
2023/02/06 02:34:31;;;;;;;7.25;1.52;;;;;;;;;;4988805;28;20061;-78
2023/02/06 02:37:33;;;;;;;6.95;1.63;;;;;;;;;;5003933;28;20037;-78
2023/02/06 02:40:07;;;;;;;8.73;1.60;;;;;;;;;;5005932;28;20034;-78
2023/02/06 02:42:54;;;;;;;10.18;1.63;;;;;;;;;;5008295;28;20033;-78
2023/02/06 02:45:39;;;;;;;7.35;1.48;;;;;;;;;;4987886;28;20441;-78
2023/02/06 02:48:13;;;;;;;10.73;2.00;;;;;;;;;;5004181;28;20022;-78
2023/02/06 02:50:39;;;;;;;8.82;1.50;;;;;;;;;;4986996;28;20133;-78
2023/02/06 02:53:07;;;;;;;10.80;1.58;;;;;;;;;;5004958;28;20099;-78
2023/02/06 02:55:32;;;;;;;6.13;1.75;;;;;;;;;;5009174;28;20363;-78
2023/02/06 02:58:12;;;;;;;7.65;1.83;;;;;;;;;;5006997;28;20029;-78
2023/02/06 03:01:02;;;;;;;8.10;1.55;;;;;;;;;;5003510;28;20026;-78
2023/02/06 03:03:30;;;;;;;8.63;1.70;;;;;;;;;;4993891;28;20042;-78
2023/02/06 03:06:25;;;;;;;7.28;1.25;;;;;;;;;;4989641;28;20108;-78
2023/02/06 03:08:57;;;;;;;6.88;1.45;;;;;;;;;;5007100;28;20201;-78
2023/02/06 03:11:23;;;;;;;5.35;1.30;;;;;;;;;;5007313;28;20421;-78
2023/02/06 03:14:01;;;;;;;7.85;1.00;;;;;;;;;;4997007;28;20033;-78
2023/02/06 03:16:53;;;;;;;10.70;1.83;;;;;;;;;;5007634;28;20037;-78
2023/02/06 03:19:25;;;;;;;5.95;1.23;;;;;;;;;;5006123;28;20478;-78
2023/02/06 03:21:51;;;;;;;9.33;1.30;;;;;;;;;;4995508;28;20482;-78
2023/02/06 03:24:21;;;;;;;8.55;1.52;;;;;;;;;;5010037;28;20282;-78
2023/02/06 03:26:51;;;;;;;8.25;1.95;;;;;;;;;;5010872;28;20107;-78
2023/02/06 03:29:18;;;;;;;6.05;1.17;;;;;;;;;;4989975;28;20560;-78
2023/02/06 03:31:48;;;;;;;5.35;1.33;;;;;;;;;;5004451;28;20041;-78
2023/02/06 03:34:27;;;;;;;9.23;1.52;;;;;;;;;;5006840;28;20419;-78
2023/02/06 03:36:53;;;;;;;6.43;1.30;;;;;;;;;;5009253;28;20505;-78
2023/02/06 03:39:20;;;;;;;5.25;1.15;;;;;;;;;;5010585;28;20053;-78
2023/02/06 03:41:46;;;;;;;6.68;1.27;;;;;;;;;;4992359;28;20044;-78
2023/02/06 03:44:20;;;;;;;7.03;1.35;;;;;;;;;;5004077;28;20041;-78
2023/02/06 03:46:47;;;;;;;7.72;1.13;;;;;;;;;;4994597;28;20031;-78
2023/02/06 03:49:16;;;;;;;11.00;1.50;;;;;;;;;;4995647;28;20057;-78
2023/02/06 03:51:48;;;;;;;8.50;1.38;;;;;;;;;;5011373;28;20034;-78
2023/02/06 03:54:18;;;;;;;5.22;1.08;;;;;;;;;;5003547;28;20038;-78
2023/02/06 03:56:50;;;;;;;7.43;1.20;;;;;;;;;;5009401;28;20437;-79
2023/02/06 03:59:16;;;;;;;6.32;1.30;;;;;;;;;;5005824;28;20470;-78
2023/02/06 04:01:44;;;;;;;8.02;1.30;;;;;;;;;;5009947;28;20075;-78
2023/02/06 04:04:10;;;;;;;4.43;1.20;;;;;;;;;;5008297;28;20508;-78
2023/02/06 04:06:35;;;;;;;6.75;1.77;;;;;;;;;;5005902;28;20025;-78
2023/02/06 04:09:01;;;;;;;6.55;1.67;;;;;;;;;;5007782;28;20068;-78
2023/02/06 04:11:26;;;;;;;8.93;1.77;;;;;;;;;;5003488;28;20033;-78
2023/02/06 04:13:51;;;;;;;6.03;1.67;;;;;;;;;;5011122;28;20105;-78
2023/02/06 04:16:17;;;;;;;9.20;1.63;;;;;;;;;;5008859;28;20029;-78
2023/02/06 04:18:42;;;;;;;8.48;1.52;;;;;;;;;;5004362;28;20500;-78
2023/02/06 04:21:07;;;;;;;11.57;1.60;;;;;;;;;;5005806;28;20058;-78
2023/02/06 04:23:33;;;;;;;5.90;1.20;;;;;;;;;;4992565;28;20045;-78
2023/02/06 04:25:59;;;;;;;5.90;1.52;;;;;;;;;;5002220;28;20092;-78
2023/02/06 04:28:24;;;;;;;7.22;1.30;;;;;;;;;;4987545;28;20087;-78
2023/02/06 04:30:50;;;;;;;7.18;1.52;;;;;;;;;;4988460;28;20033;-78
2023/02/06 04:33:15;;;;;;;8.85;1.42;;;;;;;;;;5007014;28;20067;-78
2023/02/06 04:35:40;;;;;;;11.35;2.17;;;;;;;;;;5004619;28;20473;-78
2023/02/06 04:38:06;;;;;;;7.88;1.60;;;;;;;;;;5004621;28;20022;-78
2023/02/06 04:40:31;;;;;;;5.45;1.20;;;;;;;;;;5007891;28;20037;-78
2023/02/06 04:42:57;;;;;;;8.02;1.63;;;;;;;;;;4994639;28;20037;-78
2023/02/06 04:45:22;;;;;;;9.15;1.60;;;;;;;;;;5004831;28;20025;-78
2023/02/06 04:47:49;;;;;;;6.10;1.70;;;;;;;;;;5008475;28;20392;-78
2023/02/06 04:50:15;;;;;;;5.00;1.45;;;;;;;;;;5006972;28;20520;-78
2023/02/06 04:52:40;;;;;;;6.03;1.58;;;;;;;;;;4991352;28;20533;-78
2023/02/06 04:55:06;;;;;;;3.50;1.15;;;;;;;;;;4991432;28;20137;-78
2023/02/06 04:57:32;;;;;;;3.20;1.13;;;;;;;;;;5007478;28;20767;-78
2023/02/06 04:59:57;;;;;;;4.45;1.20;;;;;;;;;;5009076;28;20382;-78
2023/02/06 05:02:22;;;;;;;4.00;1.27;;;;;;;;;;5006463;28;20022;-78
2023/02/06 05:04:48;;;;;;;2.70;1.02;;;;;;;;;;5007624;28;20029;-78
2023/02/06 05:07:13;;;;;;;6.05;1.35;;;;;;;;;;5005852;28;20029;-78
2023/02/06 05:09:38;;;;;;;6.82;1.30;;;;;;;;;;5009462;28;20033;-78
2023/02/06 05:12:04;;;;;;;5.18;1.45;;;;;;;;;;5006814;28;20018;-78
2023/02/06 05:14:29;;;;;;;5.90;1.27;;;;;;;;;;5007925;28;20394;-78
2023/02/06 05:16:55;;;;;;;4.95;1.20;;;;;;;;;;5005307;28;20042;-78
2023/02/06 05:19:21;;;;;;;6.88;1.40;;;;;;;;;;4996424;28;20190;-78
2023/02/06 05:21:46;;;;;;;4.85;1.10;;;;;;;;;;5004324;28;20033;-78
2023/02/06 05:24:12;;;;;;;4.30;1.25;;;;;;;;;;5010633;28;20391;-78
2023/02/06 05:26:37;;;;;;;6.15;1.50;;;;;;;;;;5009756;28;20057;-78
2023/02/06 05:29:03;;;;;;;4.38;1.17;;;;;;;;;;4988798;28;20478;-78
2023/02/06 05:31:28;;;;;;;4.50;1.20;;;;;;;;;;5005759;28;20025;-78
2023/02/06 05:33:54;;;;;;;5.50;1.30;;;;;;;;;;5006216;28;20034;-78
2023/02/06 05:36:20;;;;;;;8.15;1.63;;;;;;;;;;4990339;28;20034;-78
2023/02/06 05:38:47;;;;;;;7.55;1.70;;;;;;;;;;5008196;28;20385;-78
2023/02/06 05:41:12;;;;;;;5.10;1.38;;;;;;;;;;5006781;28;20553;-78
2023/02/06 05:43:38;;;;;;;6.85;1.65;;;;;;;;;;4989162;28;20121;-78
2023/02/06 05:46:03;;;;;;;10.65;1.63;;;;;;;;;;5008057;28;20018;-78
2023/02/06 05:48:29;;;;;;;6.72;1.40;;;;;;;;;;5005840;28;20104;-78
2023/02/06 05:50:56;;;;;;;7.35;2.47;;;;;;;;;;5006530;28;20037;-78
2023/02/06 05:53:22;;;;;;;6.63;1.77;;;;;;;;;;4990081;28;20116;-78
2023/02/06 05:55:47;;;;;;;7.03;1.77;;;;;;;;;;4992339;28;20114;-78
2023/02/06 05:58:13;;;;;;;8.48;1.83;;;;;;;;;;5003865;28;20406;-78
2023/02/06 06:00:38;;;;;;;7.43;1.67;;;;;;;;;;5000471;28;20500;-78
2023/02/06 06:03:04;;;;;;;8.55;1.77;;;;;;;;;;4982702;28;20168;-78
2023/02/06 06:05:29;;;;;;;6.90;1.83;;;;;;;;;;4998945;28;20112;-78
2023/02/06 06:07:55;;;;;;;13.32;2.28;;;;;;;;;;5004839;28;20030;-78
2023/02/06 06:10:20;;;;;;;7.35;1.67;;;;;;;;;;4990249;28;20120;-78
2023/02/06 06:12:46;;;;;;;6.57;1.73;;;;;;;;;;4983484;28;20076;-78
2023/02/06 06:15:12;;;;;;;7.38;1.83;;;;;;;;;;5002156;28;20065;-78
2023/02/06 06:17:37;;;;;;;8.57;1.75;;;;;;;;;;5003857;28;20509;-78
2023/02/06 06:20:03;;;;;;;5.38;1.45;;;;;;;;;;5002776;28;20121;-78
2023/02/06 06:22:29;;;;;;;11.10;2.03;;;;;;;;;;5008111;28;20104;-78
2023/02/06 06:24:54;;;;;;;6.75;2.05;;;;;;;;;;4992054;28;20113;-78
2023/02/06 06:27:20;;;;;;;9.50;2.35;;;;;;;;;;4993433;28;20502;-78
2023/02/06 06:29:45;;;;;;;7.80;1.50;;;;;;;;;;4998858;28;20176;-78
2023/02/06 06:32:10;;;;;;;9.63;1.75;;;;;;;;;;5009746;28;20429;-78
2023/02/06 06:34:36;;;;;;;10.00;2.22;;;;;;;;;;5008662;28;20104;-78
2023/02/06 06:37:01;;;;;;;5.88;1.60;;;;;;;;;;5002087;28;20092;-78
2023/02/06 06:39:26;;;;;;;5.32;1.55;;;;;;;;;;5010046;28;20030;-78
2023/02/06 06:41:52;;;;;;;10.40;2.22;;;;;;;;;;5008501;28;20025;-78
2023/02/06 06:44:17;;;;;;;7.15;2.00;;;;;;;;;;5010501;28;20557;-78
2023/02/06 06:46:43;;;;;;;9.27;1.90;;;;;;;;;;5011253;28;20052;-78
2023/02/06 06:49:09;;;;;;;6.70;1.48;;;;;;;;;;5012983;28;20029;-78
2023/02/06 06:51:34;;;;;;;7.85;2.45;;;;;;;;;;5010317;28;20058;-78
2023/02/06 06:54:00;;;;;;;7.10;1.48;;;;;;;;;;4993913;28;20030;-78
2023/02/06 06:56:25;;;;;;;8.57;2.08;;;;;;;;;;5009712;28;20022;-78
2023/02/06 06:58:51;;;;;;;8.65;2.38;;;;;;;;;;4994472;28;20033;-78
2023/02/06 07:01:17;;;;;;;9.73;2.53;;;;;;;;;;4984542;28;20120;-78
2023/02/06 07:03:44;;;;;;;11.18;2.10;;;;;;;;;;5005674;28;20037;-79
2023/02/06 07:06:10;;;;;;;10.63;1.90;;;;;;;;;;4990831;28;20044;-78
2023/02/06 07:08:40;;;;;;;11.25;2.10;;;;;;;;;;4999387;28;20822;-79
2023/02/06 07:11:08;;;;;;;8.65;1.88;;;;;;;;;;4991658;28;20483;-78
2023/02/06 07:13:33;;;;;;;7.18;1.60;;;;;;;;;;5006760;28;20064;-79
2023/02/06 07:15:59;;;;;;;5.88;1.77;;;;;;;;;;5004916;28;20018;-78
2023/02/06 07:18:24;;;;;;;6.32;2.10;;;;;;;;;;5003911;28;20030;-78
2023/02/06 07:20:50;;;;;;;7.50;1.73;;;;;;;;;;5006065;28;20105;-79
2023/02/06 07:23:16;;;;;;;5.43;1.80;;;;;;;;;;5004400;28;20042;-78
2023/02/06 07:25:41;;;;;;;4.45;1.60;;;;;;;;;;4991366;28;20041;-79
2023/02/06 07:28:07;;;;;;;3.92;1.50;;;;;;;;;;5008446;28;20049;-79
2023/02/06 07:30:33;;;;;;;3.50;1.20;;;;;;;;;;4989101;28;20034;-78
2023/02/06 07:32:58;;;;;;;6.75;1.80;;;;;;;;;;4992958;28;20026;-78
2023/02/06 07:35:23;;;;;;;5.82;1.70;;;;;;;;;;5005760;28;20175;-79
2023/02/06 07:37:52;;;;;;;3.63;1.25;;;;;;;;;;5009398;28;20052;-78
2023/02/06 07:40:18;;;;;;;2.47;1.33;;;;;;;;;;4996377;28;20037;-78
2023/02/06 07:42:43;;;;;;;3.90;1.30;;;;;;;;;;5005232;28;20332;-78
2023/02/06 07:45:09;;;;;;;4.53;1.58;;;;;;;;;;5008499;28;20042;-79
2023/02/06 07:47:34;;;;;;;4.75;1.77;;;;;;;;;;5001669;28;20029;-79
2023/02/06 07:49:59;;;;;;;4.85;1.30;;;;;;;;;;5009301;28;20034;-78
2023/02/06 07:52:25;;;;;;;5.80;1.40;;;;;;;;;;5008335;28;20033;-78
2023/02/06 07:54:50;;;;;;;3.95;1.40;;;;;;;;;;4991797;28;20029;-79
2023/02/06 07:57:16;;;;;;;4.28;1.38;;;;;;;;;;5006347;28;20035;-78
2023/02/06 07:59:41;;;;;;;6.28;1.80;;;;;;;;;;5003889;28;20356;-78
2023/02/06 08:02:10;;;;;;;4.70;1.55;;;;;;;;;;4991950;28;20029;-78
2023/02/06 08:04:35;;;;;;;4.93;1.65;;;;;;;;;;4992484;28;20034;-78
2023/02/06 08:07:02;;;;;;;4.55;1.65;;;;;;;;;;5004547;28;20037;-78
2023/02/06 08:09:27;;;;;;;5.53;1.60;;;;;;;;;;4994930;28;20501;-78
2023/02/06 08:11:53;;;;;;;5.10;1.80;;;;;;;;;;4977771;28;20022;-78
2023/02/06 08:14:18;;;;;;;3.08;1.08;;;;;;;;;;4990176;28;20030;-78
2023/02/06 08:16:44;;;;;;;6.40;1.70;;;;;;;;;;4988491;28;20192;-78
2023/02/06 08:19:11;;;;;;;5.65;1.90;;;;;;;;;;5007551;28;20018;-78
2023/02/06 08:21:37;;;;;;;5.25;1.70;;;;;;;;;;5013157;28;20088;-78
2023/02/06 08:24:03;;;;;;;4.50;1.83;;;;;;;;;;5009644;28;20040;-78
2023/02/06 08:26:29;;;;;;;5.72;1.95;;;;;;;;;;5008602;28;20112;-78
2023/02/06 08:28:56;;;;;;;5.15;1.38;;;;;;;;;;5008553;28;20455;-78
2023/02/06 08:31:27;;;;;;;5.50;1.98;;;;;;;;;;4991214;28;20030;-78
2023/02/06 08:33:53;;;;;;;5.47;1.73;;;;;;;;;;5010613;28;20410;-78
2023/02/06 08:36:20;;;;;;;7.90;2.05;;;;;;;;;;5006523;28;20092;-78
2023/02/06 08:38:46;;;;;;;4.78;1.77;;;;;;;;;;4987625;28;20053;-78
2023/02/06 08:41:18;;;;;;;7.05;1.98;;;;;;;;;;5010461;28;20076;-78
2023/02/06 08:43:45;;;;;;;7.93;2.45;;;;;;;;;;4994388;28;20124;-78
2023/02/06 08:46:10;;;;;;;7.75;2.42;;;;;;;;;;5002030;28;20072;-78
2023/02/06 08:48:36;;;;;;;8.75;2.70;;;;;;;;;;5001976;28;20034;-78
2023/02/06 08:51:06;;;;;;;8.15;2.15;;;;;;;;;;5012104;28;20052;-78
2023/02/06 08:53:32;;;;;;;8.00;4.13;;;;;;;;;;5002248;28;20018;-78
2023/02/06 08:56:06;;;;;;;7.93;3.75;;;;;;;;;;5001371;28;20597;-78
2023/02/06 08:58:33;;;;;;;11.25;4.75;;;;;;;;;;5002917;28;20025;-78
2023/02/06 09:01:05;;;;;;;10.07;3.13;;;;;;;;;;5012692;28;20053;-78
2023/02/06 09:03:30;;;;;;;7.95;2.47;;;;;;;;;;5001751;28;20382;-77
2023/02/06 09:06:00;;;;;;;7.93;2.40;;;;;;;;;;5008029;28;20015;-78
2023/02/06 09:08:25;;;;;;;10.30;2.47;;;;;;;;;;5009983;28;20109;-78
2023/02/06 09:10:51;;;;;;;9.20;2.33;;;;;;;;;;5003589;28;20175;-78
2023/02/06 09:13:17;;;;;;;6.03;2.00;;;;;;;;;;5001617;28;20030;-78
2023/02/06 09:15:50;;;;;;;9.68;2.10;;;;;;;;;;5001346;28;20026;-78
2023/02/06 09:18:15;;;;;;;7.95;2.58;;;;;;;;;;5005367;28;20026;-78
2023/02/06 09:20:41;;;;;;;8.98;2.92;;;;;;;;;;5005221;28;20033;-78
2023/02/06 09:23:06;;;;;;;9.65;2.53;;;;;;;;;;4999971;28;20036;-77
2023/02/06 09:25:31;;;;;;;8.32;2.67;;;;;;;;;;5012192;28;20025;-78
2023/02/06 09:27:57;;;;;;;8.77;2.38;;;;;;;;;;5005521;28;20497;-78
2023/02/06 09:30:22;;;;;;;10.18;2.35;;;;;;;;;;5006437;28;20519;-78
2023/02/06 09:32:48;;;;;;;8.30;2.55;;;;;;;;;;5006592;28;20026;-78
2023/02/06 09:35:13;;;;;;;6.95;3.10;;;;;;;;;;5007759;28;20055;-77
2023/02/06 09:37:39;;;;;;;10.32;2.53;;;;;;;;;;5010211;28;20045;-78
2023/02/06 09:40:04;;;;;;;9.80;2.85;;;;;;;;;;5007540;28;20025;-78
2023/02/06 09:42:36;;;;;;;11.13;3.20;;;;;;;;;;4985768;28;20026;-78
2023/02/06 09:45:31;;;;;;;11.40;3.08;;;;;;;;;;5004486;28;20037;-78
2023/02/06 09:48:15;;;;;;;15.43;3.20;;;;;;;;;;4994852;28;20441;-78
2023/02/06 09:51:06;;;;;;;7.90;3.00;;;;;;;;;;5010767;28;20482;-78
2023/02/06 09:53:53;;;;;;;9.82;2.60;;;;;;;;;;5007171;28;20064;-78
2023/02/06 09:56:44;;;;;;;10.60;2.80;;;;;;;;;;5008919;28;20105;-78
2023/02/06 09:59:30;;;;;;;9.80;2.20;;;;;;;;;;4982502;28;20120;-78
2023/02/06 10:02:17;;;;;;;9.07;2.85;;;;;;;;;;5006372;28;20030;-78
2023/02/06 10:04:53;;;;;;;8.20;2.92;;;;;;;;;;5001048;28;20544;-79
2023/02/06 10:07:18;;;;;;;11.98;2.92;;;;;;;;;;5008529;28;20034;-78
2023/02/06 10:09:46;;;;;;;13.55;3.13;;;;;;;;;;4990729;28;20509;-78
2023/02/06 10:12:20;;;;;;;9.50;2.33;;;;;;;;;;5003536;28;20052;-78
2023/02/06 10:14:53;;;;;;;8.77;2.20;;;;;;;;;;4987239;28;20033;-78
2023/02/06 10:17:21;;;;;;;8.52;2.58;;;;;;;;;;4985936;28;20083;-78
2023/02/06 10:20:17;;;;;;;11.00;2.58;;;;;;;;;;5003235;28;20045;-79
2023/02/06 10:23:19;;;;;;;12.23;2.45;;;;;;;;;;5008282;28;20030;-78
2023/02/06 10:25:52;;;;;;;8.38;2.33;;;;;;;;;;5009403;28;20049;-79
2023/02/06 10:28:27;;;;;;;8.52;2.88;;;;;;;;;;5009550;28;20486;-78
2023/02/06 10:30:55;;;;;;;9.40;2.65;;;;;;;;;;5004007;28;20073;-78
2023/02/06 10:33:36;;;;;;;10.52;2.88;;;;;;;;;;5007589;28;20478;-79
2023/02/06 10:36:22;;;;;;;9.45;2.90;;;;;;;;;;4985949;28;20069;-79
2023/02/06 10:38:48;;;;;;;12.15;3.20;;;;;;;;;;5009078;28;20013;-78
2023/02/06 10:42:00;;;;;;;8.55;2.50;;;;;;;;;;5008762;28;20093;-78
2023/02/06 10:44:34;;;;;;;9.85;2.53;;;;;;;;;;4934675;28;20536;-79
2023/02/06 10:46:59;;;;;;;;;;;;;;;;;;4987646;28;20032;-79
2023/02/06 10:49:33;;;;;;;14.02;2.70;;;;;;;;;;5010689;28;19917;-78
2023/02/06 10:52:19;;;;;;;9.18;2.42;;;;;;;;;;5006416;28;20483;-79
2023/02/06 10:55:13;;;;;;;12.77;2.72;;;;;;;;;;5009650;28;20022;-79
2023/02/06 10:57:41;;;;;;;9.45;2.30;;;;;;;;;;5000677;28;20093;-78
2023/02/06 11:00:19;;;;;;;10.55;2.72;;;;;;;;;;4992741;28;20458;-78
2023/02/06 11:02:55;;;;;;;8.10;2.05;;;;;;;;;;4990200;28;20033;-79
2023/02/06 11:05:27;;;;;;;10.52;2.22;;;;;;;;;;4982949;28;20738;-78
2023/02/06 11:08:12;;;;;;;10.80;2.03;;;;;;;;;;5005350;28;20022;-79
2023/02/06 11:10:39;;;;;;;9.35;2.00;;;;;;;;;;4985882;28;20042;-78
2023/02/06 11:13:07;;;;;;;8.75;2.70;;;;;;;;;;5000461;28;20049;-79
2023/02/06 11:15:51;;;;;;;12.32;2.33;;;;;;;;;;5010616;28;20458;-79
2023/02/06 11:18:19;;;;;;;10.50;2.30;;;;;;;;;;5003011;28;20393;-79
2023/02/06 11:20:48;;;;;;;8.02;1.75;;;;;;;;;;5009090;28;20484;-78
2023/02/06 11:23:20;;;;;;;9.48;1.75;;;;;;;;;;4990758;28;20024;-78
2023/02/06 11:25:55;;;;;;;13.23;2.15;;;;;;;;;;5010331;28;20690;-79
2023/02/06 11:28:23;;;;;;;9.52;1.85;;;;;;;;;;5005720;28;20367;-79
2023/02/06 11:30:58;;;;;;;8.45;1.67;;;;;;;;;;4990419;28;20026;-79
2023/02/06 11:33:45;;;;;;;12.30;1.75;;;;;;;;;;4991706;28;20014;-79
2023/02/06 11:36:37;;;;;;;13.02;1.98;;;;;;;;;;5014644;28;20092;-79
2023/02/06 11:39:20;;;;;;;14.98;2.60;;;;;;;;;;5009170;28;20387;-79
2023/02/06 11:41:55;;;;;;;;;;;;;;;;;;5014574;28;20034;-79
2023/02/06 11:44:23;;;;;;;9.23;1.50;;;;;;;;;;5009461;28;19933;-79
2023/02/06 11:46:49;;;;;;;11.68;1.85;;;;;;;;;;5009543;28;20069;-79
2023/02/06 11:49:20;;;;;;;14.02;2.35;;;;;;;;;;4991480;28;20066;-79
2023/02/06 11:51:55;;;;;;;10.55;1.83;;;;;;;;;;4991977;28;20077;-79
2023/02/06 11:54:26;;;;;;;14.20;2.03;;;;;;;;;;4994292;28;20069;-79
2023/02/06 11:57:18;;;;;;;7.57;2.15;;;;;;;;;;5011665;28;20485;-79
2023/02/06 11:59:56;;;;;;;9.00;1.80;;;;;;;;;;5004445;28;20018;-79
2023/02/06 12:02:34;;;;;;;11.25;1.75;;;;;;;;;;4993188;28;20121;-79
2023/02/06 12:05:16;;;;;;;10.23;1.77;;;;;;;;;;5006812;28;20061;-79
2023/02/06 12:07:48;;;;;;;10.98;1.80;;;;;;;;;;5011596;28;20494;-79
2023/02/06 12:10:17;;;;;;;16.83;1.93;;;;;;;;;;5011024;28;20528;-79
2023/02/06 12:12:50;;;;;;;7.32;1.52;;;;;;;;;;5002024;28;20450;-79
2023/02/06 12:15:21;;;;;;;10.48;1.50;;;;;;;;;;4995911;28;20040;-78
2023/02/06 12:18:00;;;;;;;6.95;1.48;;;;;;;;;;4987827;28;20111;-79
2023/02/06 12:20:34;;;;;;;10.48;1.33;;;;;;;;;;5006424;28;20045;-79
2023/02/06 12:23:17;;;;;;;9.50;1.75;;;;;;;;;;5001143;28;20030;-79
2023/02/06 12:25:49;;;;;;;11.47;1.87;;;;;;;;;;5014045;28;20108;-79
2023/02/06 12:28:27;;;;;;;12.20;1.80;;;;;;;;;;5009472;28;20631;-79
2023/02/06 12:31:11;;;;;;;9.02;1.17;;;;;;;;;;4981020;28;20032;-79
2023/02/06 12:33:51;;;;;;;10.70;1.67;;;;;;;;;;5011956;28;20374;-79
2023/02/06 12:36:29;;;;;;;8.18;1.80;;;;;;;;;;5005060;28;20109;-79
2023/02/06 12:39:00;;;;;;;9.07;1.55;;;;;;;;;;5006548;28;20030;-79
2023/02/06 12:41:49;;;;;;;9.75;1.60;;;;;;;;;;5006378;28;20486;-80
2023/02/06 12:44:25;;;;;;;12.88;2.00;;;;;;;;;;5008550;28;20029;-79
2023/02/06 12:47:14;;;;;;;8.82;1.40;;;;;;;;;;4997733;28;20402;-80
2023/02/06 12:50:18;;;;;;;9.55;1.58;;;;;;;;;;5009176;28;20033;-79
2023/02/06 12:52:54;;;;;;;9.63;1.80;;;;;;;;;;4975675;28;20065;-79
2023/02/06 12:55:30;;;;;;;6.22;1.35;;;;;;;;;;5008546;28;20125;-80
2023/02/06 12:57:56;;;;;;;6.80;1.30;;;;;;;;;;5010417;28;20555;-79
2023/02/06 13:00:34;;;;;;;9.27;1.60;;;;;;;;;;5012449;28;20022;-80
2023/02/06 13:03:38;;;;;;;12.93;2.10;;;;;;;;;;5010106;28;20029;-80
2023/02/06 13:06:11;;;;;;;;;;;;;;;;;;4915145;29;20135;-79
2023/02/06 13:08:55;;;;;;;9.50;1.60;;;;;;;;;;4932511;29;19921;-79
2023/02/06 13:11:24;;;;;;;12.82;1.95;;;;;;;;;;4979248;28;20042;-80
2023/02/06 13:13:59;;;;;;;5.85;1.38;;;;;;;;;;4990888;28;20033;-79
2023/02/06 13:16:44;;;;;;;10.07;1.42;;;;;;;;;;5005963;28;20440;-80
2023/02/06 13:19:21;;;;;;;10.02;1.40;;;;;;;;;;4994122;28;20042;-79
2023/02/06 13:22:14;;;;;;;4.25;1.08;;;;;;;;;;5009573;28;20536;-79
2023/02/06 13:24:41;;;;;;;9.68;1.67;;;;;;;;;;5003210;28;20383;-79
2023/02/06 13:27:06;;;;;;;9.65;1.40;;;;;;;;;;5012002;28;20125;-79
2023/02/06 13:29:34;;;;;;;11.40;1.38;;;;;;;;;;5003856;28;20581;-79
2023/02/06 13:32:14;;;;;;;6.60;1.38;;;;;;;;;;4998348;28;20036;-80
2023/02/06 13:34:45;;;;;;;6.55;1.10;;;;;;;;;;5011517;28;20109;-79
2023/02/06 13:37:36;;;;;;;8.40;1.33;;;;;;;;;;5006269;28;20060;-80
2023/02/06 13:40:19;;;;;;;8.23;1.13;;;;;;;;;;4983604;28;20042;-80
2023/02/06 13:43:12;;;;;;;9.73;1.88;;;;;;;;;;5004998;28;20169;-80
2023/02/06 13:45:53;;;;;;;6.95;1.33;;;;;;;;;;5002928;28;20034;-79
2023/02/06 13:48:39;;;;;;;9.77;1.30;;;;;;;;;;4995437;28;20544;-80
2023/02/06 13:51:35;;;;;;;11.13;1.65;;;;;;;;;;5004786;28;20104;-79
2023/02/06 13:54:12;;;;;;;11.45;1.85;;;;;;;;;;4999635;28;20541;-79
2023/02/06 13:57:09;;;;;;;8.85;1.55;;;;;;;;;;5008632;28;20114;-80
2023/02/06 13:59:54;;;;;;;8.05;1.50;;;;;;;;;;5001992;28;20022;-79
2023/02/06 14:02:38;;;;;;;7.60;1.40;;;;;;;;;;5011835;28;20470;-79
2023/02/06 14:05:09;;;;;;;11.70;1.50;;;;;;;;;;4987436;28;20036;-79
2023/02/06 14:08:04;;;;;;;7.88;1.63;;;;;;;;;;5003668;28;20034;-79
2023/02/06 14:10:52;;;;;;;5.97;1.70;;;;;;;;;;4971152;28;20037;-80
2023/02/06 14:13:43;;;;;;;7.63;1.58;;;;;;;;;;4986197;28;20029;-80
2023/02/06 14:16:42;;;;;;;7.20;2.00;;;;;;;;;;5000285;28;20493;-80
2023/02/06 14:19:33;;;;;;;5.88;1.38;;;;;;;;;;5003756;28;20026;-79
2023/02/06 14:22:20;;;;;;;8.35;1.60;;;;;;;;;;5006280;28;20077;-80
2023/02/06 14:25:07;;;;;;;14.35;1.80;;;;;;;;;;5005433;28;20125;-79
2023/02/06 14:27:40;;;;;;;11.55;1.70;;;;;;;;;;4986133;28;20505;-79
2023/02/06 14:30:42;;;;;;;12.63;1.95;;;;;;;;;;5003274;28;20036;-79
2023/02/06 14:33:32;;;;;;;5.97;1.50;;;;;;;;;;5002703;28;20026;-79
2023/02/06 14:36:25;;;;;;;8.57;1.38;;;;;;;;;;5001239;28;20034;-79
2023/02/06 14:39:08;;;;;;;8.55;1.77;;;;;;;;;;5008324;28;20057;-79
2023/02/06 14:41:38;;;;;;;9.70;1.83;;;;;;;;;;4988601;28;20054;-79
2023/02/06 14:44:17;;;;;;;7.25;1.40;;;;;;;;;;4995086;28;20026;-80
2023/02/06 14:46:43;;;;;;;8.98;1.55;;;;;;;;;;5000222;28;20030;-79
2023/02/06 14:49:15;;;;;;;10.27;1.35;;;;;;;;;;5007796;28;20089;-80
2023/02/06 14:51:41;;;;;;;5.20;1.30;;;;;;;;;;4989986;28;20057;-80
2023/02/06 14:54:35;;;;;;;14.02;1.90;;;;;;;;;;5004960;28;20029;-79
2023/02/06 14:57:03;;;;;;;13.48;1.95;;;;;;;;;;5004672;28;20039;-80
2023/02/06 14:59:30;;;;;;;11.30;2.13;;;;;;;;;;4993143;28;20072;-79
2023/02/06 15:01:57;;;;;;;8.55;1.90;;;;;;;;;;5009738;28;20121;-80
2023/02/06 15:04:27;;;;;;;12.13;2.15;;;;;;;;;;5005371;28;20028;-80
2023/02/06 15:06:58;;;;;;;13.07;2.00;;;;;;;;;;5009289;28;20030;-79